Terminal Aerodrome Forecast
Issued by NWS

Home | Current Version | Previous Version | Text Only | Print | Product List | Glossary On
Versions: 1 2 3 4 5 6 7 8 9 10 11 12 13 14
000
FTUS43 KEAX 261023 AAA
TAFSTJ
TAF AMD
KSTJ 261023Z 2610/2706 VRB04KT P6SM VCTS BKN060CB
      TEMPO 2610/2613 4SM -TSRA BKN050CB
     FM261600 19009KT P6SM SCT060=

USA.gov is the U.S. government's official web portal to all federal, state and local government web resources and services.